Time;durP1;ratioP1;P1;durP2;ratioP2;P2;SDS_P1;SDS_P2;PMS_P1;PMS_P2;Temp;Humidity;BMP_temperature;BMP_pressure;BME280_temperature;BME280_humidity;BME280_pressure;Samples;Min_cycle;Max_cycle;Signal;HPM_P1;HPM_P2
2023/05/10 00:02:21;;;;;;;4.77;3.70;;;13.40;99.90;;;;;;4825406;29;20057;-86
2023/05/10 00:04:47;;;;;;;4.88;3.80;;;13.30;99.90;;;;;;4798943;29;20484;-87
2023/05/10 00:07:12;;;;;;;6.00;4.63;;;13.20;99.90;;;;;;4810029;29;20149;-87
2023/05/10 00:09:38;;;;;;;5.05;3.42;;;13.20;99.90;;;;;;4825939;29;20433;-87
2023/05/10 00:12:04;;;;;;;4.55;3.55;;;13.10;99.90;;;;;;4794232;29;20058;-87
2023/05/10 00:14:30;;;;;;;4.13;2.85;;;13.10;99.90;;;;;;4815729;29;20106;-87
2023/05/10 00:16:56;;;;;;;5.70;4.47;;;13.10;99.90;;;;;;4808392;29;20042;-88
2023/05/10 00:19:21;;;;;;;5.47;4.00;;;13.00;99.90;;;;;;4809991;29;20419;-86
2023/05/10 00:21:47;;;;;;;4.68;3.45;;;13.00;99.90;;;;;;4825496;29;20189;-87
2023/05/10 00:24:13;;;;;;;4.72;3.33;;;13.00;99.90;;;;;;4805049;29;20092;-86
2023/05/10 00:26:38;;;;;;;3.97;3.17;;;13.00;99.90;;;;;;4792170;29;20412;-87
2023/05/10 00:29:05;;;;;;;4.55;3.13;;;12.90;99.90;;;;;;4808582;29;20591;-87
2023/05/10 00:31:31;;;;;;;3.92;3.03;;;12.90;99.90;;;;;;4796661;29;20461;-87
2023/05/10 00:33:56;;;;;;;4.05;2.30;;;12.90;99.90;;;;;;4807215;29;20043;-87
2023/05/10 00:36:22;;;;;;;5.43;3.03;;;12.80;99.90;;;;;;4807325;29;20063;-87
2023/05/10 00:38:48;;;;;;;5.28;3.33;;;12.80;99.90;;;;;;4808173;29;20077;-87
2023/05/10 00:41:14;;;;;;;3.78;2.33;;;13.00;99.90;;;;;;4807753;29;20061;-87
2023/05/10 00:43:39;;;;;;;4.55;3.30;;;12.80;99.90;;;;;;4808028;29;20058;-85
2023/05/10 00:46:06;;;;;;;5.18;3.33;;;12.80;99.90;;;;;;4807447;29;20051;-87
2023/05/10 00:48:31;;;;;;;5.45;3.35;;;12.90;99.90;;;;;;4789478;29;20138;-87
2023/05/10 00:50:57;;;;;;;5.63;3.22;;;12.70;99.90;;;;;;4790069;29;20137;-86
2023/05/10 00:53:24;;;;;;;5.40;3.45;;;12.70;99.90;;;;;;4806039;29;20187;-87
2023/05/10 00:55:50;;;;;;;4.72;3.17;;;12.70;99.90;;;;;;4808222;29;20051;-85
2023/05/10 00:58:17;;;;;;;3.60;2.60;;;12.70;99.90;;;;;;4793075;29;20119;-86
2023/05/10 01:00:45;;;;;;;4.65;2.85;;;12.70;99.90;;;;;;4823251;29;20056;-86
2023/05/10 01:03:11;;;;;;;3.45;2.45;;;12.70;99.90;;;;;;4808601;29;20154;-85
2023/05/10 01:05:37;;;;;;;4.57;2.78;;;12.70;99.90;;;;;;4795951;29;20094;-86
2023/05/10 01:08:03;;;;;;;3.97;2.55;;;12.60;99.90;;;;;;4821560;29;20043;-87
2023/05/10 01:10:30;;;;;;;3.78;2.55;;;12.60;99.90;;;;;;4805868;29;20557;-86
2023/05/10 01:12:56;;;;;;;3.42;2.33;;;12.50;99.90;;;;;;4795969;29;20558;-86
2023/05/10 01:15:22;;;;;;;3.83;2.83;;;12.60;99.90;;;;;;4810601;29;20127;-85
2023/05/10 01:17:49;;;;;;;3.72;2.88;;;12.60;99.90;;;;;;4825464;29;20457;-85
2023/05/10 01:20:15;;;;;;;4.32;2.28;;;12.60;99.90;;;;;;4809272;29;20054;-85
2023/05/10 01:22:49;;;;;;;4.35;3.33;;;12.50;99.90;;;;;;4808943;29;20093;-85
2023/05/10 01:25:40;;;;;;;4.07;3.20;;;12.60;99.90;;;;;;4826765;29;20062;-85
2023/05/10 01:28:47;;;;;;;3.40;2.28;;;12.60;99.90;;;;;;4808848;29;20050;-87
2023/05/10 01:31:38;;;;;;;6.35;3.45;;;12.50;99.90;;;;;;4824049;29;20058;-85
2023/05/10 01:34:19;;;;;;;4.40;3.05;;;12.50;99.90;;;;;;4810260;29;20129;-86
2023/05/10 01:37:17;;;;;;;4.55;3.00;;;12.50;99.90;;;;;;4795610;29;20061;-86
2023/05/10 01:39:48;;;;;;;4.93;3.33;;;12.50;99.90;;;;;;4820580;29;20064;-85
2023/05/10 01:42:28;;;;;;;4.38;3.03;;;12.50;99.90;;;;;;4825396;29;20503;-86
2023/05/10 01:45:02;;;;;;;5.05;2.83;;;12.40;99.90;;;;;;4808350;29;20046;-85
2023/05/10 01:48:03;;;;;;;4.32;2.72;;;12.40;99.90;;;;;;4810132;29;20058;-86
2023/05/10 01:50:30;;;;;;;4.00;2.85;;;12.40;99.90;;;;;;4750605;30;20828;-85
2023/05/10 01:52:59;;;;;;;3.90;2.92;;;12.70;99.90;;;;;;4752313;29;20135;-85
2023/05/10 01:55:30;;;;;;;5.45;3.28;;;12.40;99.90;;;;;;4731420;30;20056;-86
2023/05/10 01:58:05;;;;;;;4.30;3.10;;;12.40;99.90;;;;;;4720618;30;20213;-86
2023/05/10 02:00:33;;;;;;;4.80;3.28;;;12.30;99.90;;;;;;4736017;30;20073;-85
2023/05/10 02:03:02;;;;;;;4.85;3.58;;;12.20;99.90;;;;;;4734797;30;20118;-86
2023/05/10 02:05:29;;;;;;;4.18;3.20;;;12.30;99.90;;;;;;4752547;30;20055;-86
2023/05/10 02:07:56;;;;;;;4.45;2.85;;;12.50;99.90;;;;;;4736603;30;20040;-86
2023/05/10 02:10:22;;;;;;;4.68;2.75;;;12.30;99.90;;;;;;4751650;30;20113;-87
2023/05/10 02:12:49;;;;;;;3.92;2.55;;;12.30;99.90;;;;;;4744469;30;20466;-86
2023/05/10 02:15:22;;;;;;;3.97;2.47;;;12.30;99.90;;;;;;4738104;30;20519;-86
2023/05/10 02:17:54;;;;;;;4.10;2.80;;;12.30;99.90;;;;;;4752403;30;20476;-86
2023/05/10 02:20:20;;;;;;;4.05;2.72;;;12.30;99.90;;;;;;4752431;30;20064;-87
2023/05/10 02:22:48;;;;;;;3.50;2.83;;;12.30;99.90;;;;;;4727399;30;20090;-86
2023/05/10 02:25:17;;;;;;;4.28;2.70;;;12.30;99.90;;;;;;4746830;29;20063;-86
2023/05/10 02:27:44;;;;;;;3.47;2.17;;;12.30;99.90;;;;;;4808039;29;20043;-86
2023/05/10 02:30:11;;;;;;;4.53;2.70;;;12.30;99.90;;;;;;4796365;29;20092;-86
2023/05/10 02:32:38;;;;;;;4.88;3.33;;;12.30;99.90;;;;;;4805497;29;20047;-86
2023/05/10 02:35:07;;;;;;;4.45;2.47;;;12.30;99.90;;;;;;4822110;29;20046;-86
2023/05/10 02:37:34;;;;;;;4.05;2.92;;;12.30;99.90;;;;;;4784322;29;20193;-86
2023/05/10 02:40:03;;;;;;;4.00;3.28;;;12.20;99.90;;;;;;4776669;29;20062;-86
2023/05/10 02:42:33;;;;;;;2.88;2.33;;;12.30;99.90;;;;;;4791753;29;20058;-86
2023/05/10 02:45:07;;;;;;;4.05;3.00;;;12.30;99.90;;;;;;4795052;29;20055;-86
2023/05/10 02:47:33;;;;;;;3.10;2.33;;;12.20;99.90;;;;;;4791373;29;20063;-87
2023/05/10 02:49:59;;;;;;;2.67;2.08;;;12.20;99.90;;;;;;4791498;29;20051;-86
2023/05/10 02:52:28;;;;;;;3.85;3.10;;;12.50;99.90;;;;;;4791580;29;20061;-87
2023/05/10 02:55:02;;;;;;;4.13;3.13;;;12.20;99.90;;;;;;4802169;29;20103;-86
2023/05/10 02:57:38;;;;;;;4.00;2.85;;;12.20;99.90;;;;;;4810844;29;20419;-86
2023/05/10 03:00:04;;;;;;;3.90;2.55;;;12.20;99.90;;;;;;4810787;29;20054;-86
2023/05/10 03:02:30;;;;;;;4.00;2.45;;;12.20;99.90;;;;;;4811233;29;20058;-85
2023/05/10 03:04:56;;;;;;;4.65;2.47;;;12.10;99.90;;;;;;4809511;29;20565;-86
2023/05/10 03:07:23;;;;;;;3.85;2.50;;;12.20;99.90;;;;;;4826785;29;20062;-86
2023/05/10 03:09:50;;;;;;;3.70;2.45;;;12.20;99.90;;;;;;4810940;29;20424;-86
2023/05/10 03:12:51;;;;;;;4.95;2.75;;;12.20;99.90;;;;;;4829624;29;20050;-88
2023/05/10 03:15:36;;;;;;;3.88;2.65;;;12.20;99.90;;;;;;4800125;29;20074;-87
2023/05/10 03:18:09;;;;;;;4.53;2.67;;;12.20;99.90;;;;;;4784896;29;20065;-86
2023/05/10 03:20:41;;;;;;;5.82;3.20;;;12.20;99.90;;;;;;4812291;29;20554;-86
2023/05/10 03:23:22;;;;;;;5.60;3.83;;;12.20;99.90;;;;;;4808150;29;20122;-86
2023/05/10 03:25:50;;;;;;;6.03;3.75;;;12.20;99.90;;;;;;4807976;29;20519;-85
2023/05/10 03:28:17;;;;;;;6.57;4.28;;;12.20;99.90;;;;;;4808951;29;20051;-86
2023/05/10 03:30:46;;;;;;;6.70;4.20;;;12.20;99.90;;;;;;4809250;29;20396;-86
2023/05/10 03:33:13;;;;;;;5.50;3.08;;;12.20;99.90;;;;;;4825537;29;20389;-86
2023/05/10 03:35:39;;;;;;;8.52;4.22;;;12.20;99.90;;;;;;4809335;29;20107;-86
2023/05/10 03:38:05;;;;;;;7.25;3.60;;;12.20;99.90;;;;;;4806490;29;20543;-87
2023/05/10 03:40:31;;;;;;;7.47;3.90;;;12.20;99.90;;;;;;4808444;29;20066;-87
2023/05/10 03:42:58;;;;;;;6.13;3.53;;;12.20;99.90;;;;;;4809599;29;20057;-86
2023/05/10 03:45:24;;;;;;;7.97;4.07;;;12.20;99.90;;;;;;4810338;29;20520;-86
2023/05/10 03:47:50;;;;;;;5.78;3.45;;;12.20;99.90;;;;;;4806947;29;20059;-86
2023/05/10 03:50:16;;;;;;;5.07;2.90;;;12.20;99.90;;;;;;4807200;29;20046;-87
2023/05/10 03:52:42;;;;;;;4.90;2.90;;;12.20;99.90;;;;;;4790506;29;20449;-86
2023/05/10 03:55:08;;;;;;;6.20;3.50;;;12.20;99.90;;;;;;4791351;29;20055;-86
2023/05/10 03:57:34;;;;;;;5.30;2.85;;;12.20;99.90;;;;;;4774903;29;20070;-86
2023/05/10 04:00:00;;;;;;;4.65;2.85;;;12.10;99.90;;;;;;4790079;29;20191;-86
2023/05/10 04:02:25;;;;;;;5.95;3.20;;;12.10;99.90;;;;;;4806606;29;20050;-93
2023/05/10 04:04:51;;;;;;;5.85;3.20;;;12.20;99.90;;;;;;4792340;29;20051;-87
2023/05/10 04:07:17;;;;;;;7.72;4.50;;;12.20;99.90;;;;;;4825262;29;20049;-90
2023/05/10 04:09:43;;;;;;;6.03;3.83;;;12.20;99.90;;;;;;4829860;29;20078;-90
2023/05/10 04:15:50;;;;;;;5.13;3.35;;;12.10;99.90;;;;;;4824575;29;20041;-88
2023/05/10 04:18:16;;;;;;;4.22;2.83;;;12.10;99.90;;;;;;4791246;29;20055;-90
2023/05/10 04:20:42;;;;;;;5.95;3.05;;;12.10;99.90;;;;;;4801540;29;20050;-90
2023/05/10 04:23:08;;;;;;;4.10;2.65;;;12.10;99.90;;;;;;4793257;29;20077;-90
2023/05/10 04:25:35;;;;;;;4.00;2.30;;;12.10;99.90;;;;;;4807995;29;20057;-90
2023/05/10 04:28:01;;;;;;;3.45;2.78;;;12.10;99.90;;;;;;4811334;29;20493;-90
2023/05/10 04:30:28;;;;;;;3.92;2.63;;;12.00;99.90;;;;;;4805857;29;20053;-89
2023/05/10 04:32:54;;;;;;;5.90;2.38;;;12.00;99.90;;;;;;4790387;29;20107;-89
2023/05/10 04:35:19;;;;;;;4.10;2.30;;;12.10;99.90;;;;;;4791365;29;20050;-87
2023/05/10 04:37:45;;;;;;;3.40;2.08;;;12.20;99.90;;;;;;4813554;29;20074;-88
2023/05/10 04:40:11;;;;;;;3.95;2.30;;;12.10;99.90;;;;;;4816096;29;20467;-88
2023/05/10 04:42:39;;;;;;;6.55;2.72;;;12.10;99.90;;;;;;4809823;29;20116;-89
2023/05/10 04:45:06;;;;;;;2.70;2.13;;;12.00;99.90;;;;;;4798744;29;20062;-88
2023/05/10 04:47:32;;;;;;;1.90;1.50;;;12.10;99.90;;;;;;4802493;29;20497;-88
2023/05/10 04:49:58;;;;;;;2.63;1.58;;;12.10;99.90;;;;;;4832796;29;20075;-91
2023/05/10 04:52:24;;;;;;;2.28;1.80;;;12.10;99.90;;;;;;4817103;29;20058;-90
2023/05/10 04:54:51;;;;;;;2.50;1.88;;;12.10;99.90;;;;;;4838206;29;20078;-86
2023/05/10 05:01:09;;;;;;;5.60;2.50;;;12.00;99.90;;;;;;4822844;29;20045;-87
2023/05/10 05:03:35;;;;;;;2.22;1.95;;;12.10;99.90;;;;;;4795464;29;20086;-90
2023/05/10 05:06:01;;;;;;;2.83;1.80;;;12.20;99.90;;;;;;4802135;29;20415;-89
2023/05/10 05:08:26;;;;;;;2.42;1.90;;;12.30;99.90;;;;;;4808472;29;20054;-88
2023/05/10 05:10:52;;;;;;;1.85;1.50;;;12.20;99.90;;;;;;4805564;29;20187;-90
2023/05/10 05:13:18;;;;;;;3.40;1.95;;;12.20;99.90;;;;;;4820517;29;20078;-89
2023/05/10 05:15:44;;;;;;;2.13;1.45;;;12.20;99.90;;;;;;4806119;29;20058;-88
2023/05/10 05:18:10;;;;;;;2.33;1.90;;;12.20;99.90;;;;;;4790715;29;20050;-89
2023/05/10 05:20:35;;;;;;;2.08;1.88;;;12.20;99.90;;;;;;4794126;29;20380;-86
2023/05/10 05:23:01;;;;;;;2.53;1.98;;;12.20;99.90;;;;;;4792375;29;20058;-90
2023/05/10 05:25:27;;;;;;;1.90;1.55;;;12.20;99.90;;;;;;4823429;29;20054;-85
2023/05/10 05:27:53;;;;;;;1.67;1.30;;;12.20;99.90;;;;;;4806904;29;20089;-86
2023/05/10 05:30:19;;;;;;;1.90;1.55;;;12.20;99.90;;;;;;4807639;29;20123;-85
2023/05/10 05:32:46;;;;;;;1.58;1.38;;;12.20;99.90;;;;;;4792900;29;20047;-85
2023/05/10 05:35:12;;;;;;;1.88;1.45;;;12.20;99.90;;;;;;4818856;29;20047;-85
2023/05/10 05:37:38;;;;;;;1.85;1.25;;;12.10;99.90;;;;;;4790353;29;20486;-86
2023/05/10 05:40:04;;;;;;;2.08;1.10;;;12.30;99.90;;;;;;4774236;29;20059;-85
2023/05/10 05:42:31;;;;;;;1.88;1.27;;;12.20;99.90;;;;;;4796582;29;20134;-86
2023/05/10 05:44:57;;;;;;;1.15;1.00;;;12.30;99.90;;;;;;4809665;29;20200;-87
2023/05/10 05:47:23;;;;;;;1.27;1.00;;;12.30;99.90;;;;;;4793142;29;20138;-85
2023/05/10 05:49:52;;;;;;;1.02;0.90;;;12.30;99.90;;;;;;4777933;29;20456;-85
2023/05/10 05:52:18;;;;;;;0.77;0.75;;;12.40;99.90;;;;;;4793519;29;20051;-86
2023/05/10 05:54:45;;;;;;;0.85;0.70;;;12.30;99.90;;;;;;4811399;29;20047;-85
2023/05/10 06:00:54;;;;;;;0.40;0.40;;;12.30;99.90;;;;;;4810847;29;20081;-86
2023/05/10 06:03:23;;;;;;;0.55;0.30;;;12.40;99.90;;;;;;4796682;29;20078;-85
2023/05/10 06:05:49;;;;;;;0.30;0.30;;;12.30;99.90;;;;;;4811967;29;20409;-86
2023/05/10 06:08:15;;;;;;;0.35;0.30;;;12.40;99.90;;;;;;4808792;24;20102;-86
2023/05/10 06:10:40;;;;;;;0.25;0.20;;;12.40;99.90;;;;;;4829281;29;20136;-87
2023/05/10 06:13:06;;;;;;;0.28;0.20;;;12.30;99.90;;;;;;4830826;29;20449;-88
2023/05/10 06:15:32;;;;;;;0.70;0.65;;;12.60;99.90;;;;;;4816242;29;20054;-86
2023/05/10 06:17:58;;;;;;;0.30;0.30;;;12.40;99.90;;;;;;4825812;29;20061;-86
2023/05/10 06:20:24;;;;;;;0.35;0.30;;;12.30;99.90;;;;;;4830802;29;20038;-86
2023/05/10 06:22:49;;;;;;;0.30;0.30;;;12.40;99.90;;;;;;4829618;29;20523;-86
2023/05/10 06:25:17;;;;;;;1.95;0.70;;;12.30;99.90;;;;;;4846052;29;20042;-85
2023/05/10 06:27:43;;;;;;;0.95;0.60;;;12.30;99.90;;;;;;4828614;29;20065;-86
2023/05/10 06:30:10;;;;;;;1.00;0.88;;;12.30;99.90;;;;;;4812305;29;20408;-87
2023/05/10 06:32:35;;;;;;;1.00;0.90;;;12.30;99.90;;;;;;4810601;29;20058;-87
2023/05/10 06:35:01;;;;;;;1.38;1.13;;;12.30;99.90;;;;;;4826580;29;20438;-87
2023/05/10 06:37:27;;;;;;;1.73;1.27;;;12.30;99.90;;;;;;4809888;29;20427;-88
2023/05/10 06:39:53;;;;;;;2.13;1.70;;;12.20;99.90;;;;;;4809970;29;20038;-87
2023/05/10 06:42:18;;;;;;;5.80;3.78;;;12.30;99.90;;;;;;4826131;29;20129;-86
2023/05/10 06:44:44;;;;;;;4.38;3.47;;;12.20;99.90;;;;;;4809398;29;20125;-86
2023/05/10 06:47:10;;;;;;;6.32;5.03;;;12.20;99.90;;;;;;4827999;29;20100;-86
2023/05/10 06:49:36;;;;;;;6.35;4.32;;;12.20;99.90;;;;;;4823688;29;20053;-83
2023/05/10 06:52:02;;;;;;;7.47;5.68;;;12.10;99.90;;;;;;4815749;29;20133;-85
2023/05/10 06:54:28;;;;;;;7.15;5.78;;;12.10;99.90;;;;;;4817875;29;20084;-89
2023/05/10 06:56:54;;;;;;;5.97;4.63;;;12.20;99.90;;;;;;4836172;29;20480;-88
2023/05/10 06:59:21;;;;;;;4.78;4.07;;;12.20;99.90;;;;;;4809956;29;20106;-86
2023/05/10 07:01:47;;;;;;;4.25;3.63;;;12.10;99.90;;;;;;4809198;29;20112;-86
2023/05/10 07:04:13;;;;;;;5.03;3.58;;;12.10;99.90;;;;;;4794041;29;20089;-86
2023/05/10 07:06:39;;;;;;;2.70;2.38;;;12.10;99.90;;;;;;4825523;29;20110;-87
2023/05/10 07:09:04;;;;;;;3.22;2.88;;;12.10;99.90;;;;;;4812924;29;20066;-85
2023/05/10 07:11:30;;;;;;;2.60;2.30;;;12.10;99.90;;;;;;4830567;29;20053;-85
2023/05/10 07:13:56;;;;;;;2.30;1.80;;;12.10;99.90;;;;;;4840997;29;20049;-86
2023/05/10 07:16:22;;;;;;;2.13;1.85;;;12.10;99.90;;;;;;4842175;29;20145;-85
2023/05/10 07:18:47;;;;;;;1.88;1.67;;;12.10;99.90;;;;;;4842121;29;20400;-83
2023/05/10 07:21:13;;;;;;;3.20;2.10;;;12.10;99.90;;;;;;4843151;29;20106;-84
2023/05/10 07:23:39;;;;;;;2.80;1.90;;;11.70;99.90;;;;;;4843090;29;20564;-84
2023/05/10 07:26:04;;;;;;;2.53;2.00;;;12.10;99.90;;;;;;4841184;29;20046;-85
2023/05/10 07:28:30;;;;;;;2.38;1.92;;;12.00;99.90;;;;;;4843009;29;20054;-82
2023/05/10 07:30:56;;;;;;;3.65;2.47;;;12.10;99.90;;;;;;4843548;29;20042;-84
2023/05/10 07:33:22;;;;;;;3.22;2.20;;;12.10;99.90;;;;;;4843607;29;20507;-83
2023/05/10 07:35:47;;;;;;;1.85;1.67;;;12.20;99.90;;;;;;4832188;29;20050;-83
2023/05/10 07:38:13;;;;;;;5.22;1.92;;;12.10;99.90;;;;;;4824852;29;20046;-83
2023/05/10 07:40:39;;;;;;;2.63;1.98;;;12.10;99.90;;;;;;4825121;29;20046;-83
2023/05/10 07:43:05;;;;;;;3.63;1.70;;;12.20;99.90;;;;;;4825207;29;20403;-82
2023/05/10 07:45:31;;;;;;;2.22;1.90;;;12.20;99.90;;;;;;4824586;29;20046;-82
2023/05/10 07:47:57;;;;;;;2.53;2.20;;;12.30;99.90;;;;;;4837045;29;20050;-83
2023/05/10 07:50:22;;;;;;;2.13;1.77;;;12.30;99.90;;;;;;4826938;29;20054;-82
2023/05/10 07:52:48;;;;;;;1.80;1.35;;;12.20;99.90;;;;;;4824896;29;20043;-82
2023/05/10 07:55:14;;;;;;;1.67;1.48;;;12.30;99.90;;;;;;4834762;29;20061;-87
2023/05/10 07:57:40;;;;;;;1.67;1.17;;;12.40;99.90;;;;;;4843098;29;20042;-83
2023/05/10 08:00:07;;;;;;;2.08;1.73;;;12.20;99.90;;;;;;4842842;29;20045;-82
2023/05/10 08:02:34;;;;;;;2.35;1.95;;;12.30;99.90;;;;;;4838962;29;20047;-82
2023/05/10 08:05:00;;;;;;;2.22;1.85;;;12.30;99.90;;;;;;4860852;29;20133;-81
2023/05/10 08:07:26;;;;;;;2.17;1.80;;;12.30;99.90;;;;;;4850510;29;20129;-85
2023/05/10 08:09:52;;;;;;;3.00;2.20;;;12.40;99.90;;;;;;4842252;29;20058;-82
2023/05/10 08:12:17;;;;;;;2.45;1.92;;;12.40;99.90;;;;;;4843085;29;20057;-82
2023/05/10 08:14:43;;;;;;;1.63;1.42;;;12.40;99.90;;;;;;4825625;29;20389;-83
2023/05/10 08:17:09;;;;;;;2.33;1.50;;;12.50;99.90;;;;;;4826089;29;20436;-82
2023/05/10 08:19:34;;;;;;;1.27;1.00;;;12.50;99.90;;;;;;4828281;29;20385;-82
2023/05/10 08:22:00;;;;;;;2.55;1.38;;;12.50;99.90;;;;;;4824000;29;20049;-83
2023/05/10 08:24:26;;;;;;;2.28;1.52;;;12.50;99.90;;;;;;4827765;29;20057;-81
2023/05/10 08:26:51;;;;;;;2.45;1.38;;;12.50;99.90;;;;;;4833928;29;20054;-81
2023/05/10 08:29:17;;;;;;;3.88;2.00;;;12.50;99.90;;;;;;4824580;29;20053;-82
2023/05/10 08:31:43;;;;;;;2.30;1.60;;;12.50;99.90;;;;;;4838433;29;20049;-83
2023/05/10 08:34:08;;;;;;;2.40;1.42;;;12.50;99.90;;;;;;4832221;29;20042;-84
2023/05/10 08:36:34;;;;;;;2.80;1.45;;;12.50;99.90;;;;;;4831116;29;20054;-81
2023/05/10 08:39:00;;;;;;;1.88;1.10;;;12.60;99.90;;;;;;4839837;29;20050;-80
2023/05/10 08:41:26;;;;;;;1.88;1.15;;;12.60;99.90;;;;;;4836841;29;20099;-84
2023/05/10 08:43:55;;;;;;;1.65;1.05;;;12.60;99.90;;;;;;4812048;29;20045;-81
2023/05/10 08:46:22;;;;;;;1.70;1.05;;;12.70;99.90;;;;;;4824830;29;20053;-85
2023/05/10 08:48:50;;;;;;;1.50;1.00;;;12.60;99.90;;;;;;4822217;29;20121;-84
2023/05/10 08:51:23;;;;;;;1.33;0.95;;;12.60;99.90;;;;;;4826092;29;20038;-80
2023/05/10 08:53:49;;;;;;;2.35;0.80;;;12.60;99.90;;;;;;4823930;29;20058;-81
2023/05/10 08:56:16;;;;;;;0.68;0.50;;;12.60;99.90;;;;;;4820956;29;20053;-81
2023/05/10 08:58:42;;;;;;;0.65;0.30;;;12.60;99.90;;;;;;4860413;29;20049;-82
2023/05/10 09:01:09;;;;;;;0.85;0.38;;;12.60;99.90;;;;;;4825471;29;20484;-82
2023/05/10 09:03:37;;;;;;;1.25;0.50;;;12.60;99.90;;;;;;4831165;29;20756;-82
2023/05/10 09:06:04;;;;;;;0.60;0.50;;;12.70;99.90;;;;;;4831708;29;20054;-81
2023/05/10 09:08:30;;;;;;;1.05;0.50;;;12.70;99.90;;;;;;4825955;29;20061;-83
2023/05/10 09:10:57;;;;;;;1.00;0.50;;;12.70;99.90;;;;;;4829532;29;20150;-83
2023/05/10 09:13:23;;;;;;;1.10;0.68;;;12.80;99.90;;;;;;4839020;29;20057;-82
2023/05/10 09:15:50;;;;;;;1.10;0.73;;;12.80;99.90;;;;;;4841449;29;20042;-82
2023/05/10 09:18:16;;;;;;;1.85;0.80;;;12.90;99.90;;;;;;4837671;29;20054;-82
2023/05/10 09:20:42;;;;;;;1.75;0.80;;;12.90;99.90;;;;;;4839585;29;20045;-81
2023/05/10 09:23:08;;;;;;;0.80;0.60;;;13.00;99.90;;;;;;4830768;24;20054;-86
2023/05/10 09:25:34;;;;;;;2.45;1.00;;;13.10;99.90;;;;;;4824308;29;20082;-84
2023/05/10 09:27:59;;;;;;;3.45;1.50;;;13.10;99.90;;;;;;4826409;29;20400;-88
2023/05/10 09:30:30;;;;;;;1.33;0.80;;;13.20;99.90;;;;;;4826274;29;20134;-85
2023/05/10 09:32:57;;;;;;;3.25;1.40;;;13.30;99.90;;;;;;4826979;29;20438;-83
2023/05/10 09:35:26;;;;;;;2.92;1.20;;;13.20;99.90;;;;;;4826242;29;20515;-84
2023/05/10 09:37:54;;;;;;;4.95;1.50;;;13.30;99.90;;;;;;4810202;29;20050;-81
2023/05/10 09:40:22;;;;;;;2.85;1.20;;;13.40;99.90;;;;;;4826126;29;20054;-82
2023/05/10 09:42:59;;;;;;;2.30;1.70;;;13.40;99.90;;;;;;4824317;29;20053;-81
2023/05/10 09:45:27;;;;;;;2.90;1.60;;;13.40;99.90;;;;;;4825756;29;20046;-82
2023/05/10 09:47:52;;;;;;;2.92;1.50;;;13.40;99.90;;;;;;4825972;29;20058;-82
2023/05/10 09:50:20;;;;;;;2.63;1.50;;;13.40;99.90;;;;;;4825629;29;20113;-82
2023/05/10 09:52:50;;;;;;;4.07;1.70;;;13.40;99.90;;;;;;4817816;29;20053;-81
2023/05/10 09:55:18;;;;;;;1.20;1.08;;;13.40;99.90;;;;;;4825139;29;20480;-80
2023/05/10 09:57:44;;;;;;;3.03;1.48;;;13.40;99.90;;;;;;4824431;29;20086;-80
2023/05/10 10:00:10;;;;;;;1.58;1.13;;;13.50;99.90;;;;;;4826191;29;20125;-81
2023/05/10 10:02:36;;;;;;;1.65;1.00;;;13.50;99.90;;;;;;4824899;29;20399;-81
2023/05/10 10:05:03;;;;;;;0.85;0.80;;;13.60;99.90;;;;;;4825649;29;20052;-80
2023/05/10 10:07:29;;;;;;;1.40;0.90;;;13.60;99.90;;;;;;4822945;29;20408;-80
2023/05/10 10:09:55;;;;;;;1.20;0.80;;;13.80;99.90;;;;;;4826290;29;20054;-82
2023/05/10 10:12:21;;;;;;;1.30;1.00;;;13.70;99.90;;;;;;4826273;29;20133;-81
2023/05/10 10:14:48;;;;;;;1.58;0.70;;;13.70;99.90;;;;;;4826253;29;20392;-82
2023/05/10 10:17:14;;;;;;;1.77;0.90;;;13.70;99.90;;;;;;4825504;29;20054;-85
2023/05/10 10:19:41;;;;;;;0.95;0.70;;;13.70;99.90;;;;;;4826252;29;20411;-81
2023/05/10 10:22:07;;;;;;;1.10;0.70;;;13.80;99.90;;;;;;4825833;29;20050;-82
2023/05/10 10:24:33;;;;;;;1.02;0.68;;;13.90;99.90;;;;;;4825915;29;20116;-82
2023/05/10 10:27:19;;;;;;;1.40;0.80;;;14.00;99.90;;;;;;4825309;29;20086;-86
2023/05/10 10:29:59;;;;;;;1.10;0.70;;;14.10;99.90;;;;;;4807274;29;20505;-80
2023/05/10 10:32:45;;;;;;;1.15;0.63;;;14.20;99.90;;;;;;4817251;29;20073;-84
2023/05/10 10:35:11;;;;;;;1.15;0.55;;;14.30;99.90;;;;;;4809472;29;20053;-82
2023/05/10 10:37:47;;;;;;;1.10;0.50;;;14.40;99.90;;;;;;4825423;29;20086;-81
2023/05/10 10:40:27;;;;;;;2.20;0.40;;;14.50;99.90;;;;;;4825601;29;20118;-82
2023/05/10 10:42:54;;;;;;;0.70;0.40;;;14.50;99.90;;;;;;4824035;29;20048;-82
2023/05/10 10:45:21;;;;;;;0.52;0.45;;;14.50;99.90;;;;;;4809705;29;20057;-82
2023/05/10 10:47:47;;;;;;;0.93;0.57;;;14.50;99.90;;;;;;4794032;29;20042;-82
2023/05/10 10:50:13;;;;;;;1.50;0.63;;;14.60;99.90;;;;;;4809192;29;20450;-84
2023/05/10 10:52:40;;;;;;;0.90;0.50;;;14.50;99.90;;;;;;4825711;29;20038;-82
2023/05/10 10:55:18;;;;;;;1.60;0.70;;;14.50;99.90;;;;;;4808802;29;20078;-82
2023/05/10 10:57:50;;;;;;;2.17;0.80;;;14.50;99.90;;;;;;4809007;29;20061;-82
2023/05/10 11:00:21;;;;;;;2.15;0.77;;;14.60;99.90;;;;;;4824916;29;20397;-82
2023/05/10 11:02:51;;;;;;;2.78;1.40;;;14.60;99.90;;;;;;4824397;29;20051;-83
2023/05/10 11:05:38;;;;;;;2.17;1.13;;;14.70;99.90;;;;;;4825478;29;20085;-82
2023/05/10 11:08:25;;;;;;;3.38;1.70;;;14.70;99.90;;;;;;4807658;29;20062;-81
2023/05/10 11:11:00;;;;;;;4.47;1.85;;;14.80;99.90;;;;;;4807502;29;20124;-81
2023/05/10 11:13:33;;;;;;;4.72;2.00;;;14.80;99.90;;;;;;4824033;29;20061;-82
2023/05/10 11:16:13;;;;;;;4.15;1.98;;;14.90;99.90;;;;;;4823414;29;20047;-82
2023/05/10 11:18:39;;;;;;;3.40;1.60;;;14.80;99.90;;;;;;4825317;29;20050;-83
2023/05/10 11:21:10;;;;;;;3.00;1.40;;;14.80;99.90;;;;;;4824103;29;20126;-83
2023/05/10 11:23:45;;;;;;;2.97;1.50;;;14.80;99.90;;;;;;4795669;29;20082;-82
2023/05/10 11:26:11;;;;;;;3.83;2.35;;;14.80;99.90;;;;;;4823907;29;20141;-83
2023/05/10 11:28:44;;;;;;;2.85;1.70;;;14.80;99.90;;;;;;4824787;29;20046;-83
2023/05/10 11:31:12;;;;;;;4.00;1.58;;;14.90;99.90;;;;;;4824648;29;20062;-82
2023/05/10 11:33:49;;;;;;;8.77;3.50;;;15.00;99.90;;;;;;4823708;29;20412;-83
2023/05/10 11:36:17;;;;;;;4.55;2.50;;;15.00;99.90;;;;;;4824633;29;20057;-83
2023/05/10 11:38:43;;;;;;;5.72;2.53;;;15.10;99.90;;;;;;4823444;29;20055;-84
2023/05/10 11:41:11;;;;;;;6.88;2.17;;;15.20;99.90;;;;;;4824333;29;20413;-84
2023/05/10 11:43:38;;;;;;;5.30;3.17;;;15.30;99.90;;;;;;4823428;29;20520;-83
2023/05/10 11:46:10;;;;;;;5.72;2.70;;;15.40;99.90;;;;;;4824498;29;20050;-82
2023/05/10 11:48:36;;;;;;;6.07;3.40;;;15.40;99.90;;;;;;4823364;29;20050;-83
2023/05/10 11:51:02;;;;;;;3.92;2.72;;;15.40;99.90;;;;;;4824242;29;20034;-83
2023/05/10 11:53:30;;;;;;;8.60;4.30;;;15.50;99.90;;;;;;4824042;29;20122;-83
2023/05/10 11:56:06;;;;;;;5.05;2.88;;;15.50;99.90;;;;;;4824512;29;20129;-83
2023/05/10 11:58:33;;;;;;;5.25;2.75;;;15.60;99.90;;;;;;4824226;29;20065;-83
2023/05/10 12:01:02;;;;;;;4.10;2.53;;;15.60;99.90;;;;;;4823299;29;20504;-82
2023/05/10 12:03:29;;;;;;;5.20;2.72;;;15.70;99.90;;;;;;4822846;29;20522;-82
2023/05/10 12:05:55;;;;;;;4.55;2.53;;;15.80;99.90;;;;;;4824200;29;20058;-82
2023/05/10 12:08:26;;;;;;;5.13;2.20;;;16.00;99.90;;;;;;4823350;29;20057;-83
2023/05/10 12:10:53;;;;;;;5.57;3.03;;;16.00;99.90;;;;;;4824058;29;20050;-82
2023/05/10 12:13:20;;;;;;;5.75;3.10;;;16.00;99.90;;;;;;4822829;29;20377;-83
2023/05/10 12:15:46;;;;;;;4.72;2.80;;;16.10;99.90;;;;;;4822083;29;20049;-83
2023/05/10 12:18:13;;;;;;;6.93;2.85;;;16.10;99.90;;;;;;4823167;29;20149;-86
2023/05/10 12:20:40;;;;;;;5.18;3.72;;;16.00;99.90;;;;;;4824260;29;20479;-81
2023/05/10 12:23:09;;;;;;;6.85;3.63;;;15.80;99.90;;;;;;4822878;29;20058;-82
2023/05/10 12:25:39;;;;;;;6.32;3.45;;;15.80;99.90;;;;;;4823881;29;20057;-83
2023/05/10 12:28:08;;;;;;;5.50;3.83;;;15.70;99.90;;;;;;4807631;29;20129;-85
2023/05/10 12:30:36;;;;;;;10.20;4.22;;;15.70;99.90;;;;;;4823417;29;20519;-82
2023/05/10 12:33:10;;;;;;;8.52;3.90;;;15.50;99.90;;;;;;4823744;29;20125;-81
2023/05/10 12:35:47;;;;;;;4.93;3.15;;;15.50;99.90;;;;;;4823509;29;20057;-82
2023/05/10 12:38:35;;;;;;;7.85;3.70;;;15.40;99.90;;;;;;4824204;29;20039;-82
2023/05/10 12:41:03;;;;;;;6.90;4.43;;;15.50;99.90;;;;;;4807316;29;20050;-81
2023/05/10 12:43:29;;;;;;;8.65;4.93;;;15.40;99.90;;;;;;4792706;29;20133;-82
2023/05/10 12:45:56;;;;;;;7.68;4.30;;;15.40;99.90;;;;;;4792275;29;20457;-82
2023/05/10 12:48:22;;;;;;;9.18;4.05;;;15.40;99.90;;;;;;4823879;29;20042;-82
2023/05/10 12:50:47;;;;;;;5.60;2.72;;;15.40;99.90;;;;;;4806941;29;20053;-82
2023/05/10 12:53:16;;;;;;;6.75;3.55;;;15.40;99.90;;;;;;4823748;29;20445;-83
2023/05/10 12:55:43;;;;;;;6.80;4.03;;;15.50;99.90;;;;;;4823879;29;20057;-82
2023/05/10 12:58:09;;;;;;;6.88;3.22;;;15.50;99.90;;;;;;4823694;29;20069;-82
2023/05/10 13:00:37;;;;;;;3.88;2.40;;;15.50;99.90;;;;;;4823712;29;20504;-82
2023/05/10 13:03:06;;;;;;;7.65;3.78;;;15.50;99.90;;;;;;4823886;29;20050;-82
2023/05/10 13:05:33;;;;;;;6.25;3.30;;;15.50;99.90;;;;;;4807079;29;20066;-82